sensor_id;sensor_type;location;lat;lon;timestamp;P1;durP1;ratioP1;P2;durP2;ratioP2
9884;SDS011;4981;50.966;4.842;2022-08-19T00:00:32;11.20;;;10.10;;
9884;SDS011;4981;50.966;4.842;2022-08-19T00:03:00;11.38;;;10.18;;
9884;SDS011;4981;50.966;4.842;2022-08-19T00:05:28;11.30;;;10.32;;
9884;SDS011;4981;50.966;4.842;2022-08-19T00:07:55;10.80;;;9.70;;
9884;SDS011;4981;50.966;4.842;2022-08-19T00:10:23;11.77;;;10.57;;
9884;SDS011;4981;50.966;4.842;2022-08-19T00:12:51;12.35;;;11.00;;
9884;SDS011;4981;50.966;4.842;2022-08-19T00:15:19;13.13;;;11.52;;
9884;SDS011;4981;50.966;4.842;2022-08-19T00:17:47;13.68;;;12.18;;
9884;SDS011;4981;50.966;4.842;2022-08-19T00:20:17;16.23;;;14.52;;
9884;SDS011;4981;50.966;4.842;2022-08-19T00:22:46;16.80;;;14.93;;
9884;SDS011;4981;50.966;4.842;2022-08-19T00:25:13;18.33;;;16.35;;
9884;SDS011;4981;50.966;4.842;2022-08-19T00:27:41;19.42;;;16.25;;
9884;SDS011;4981;50.966;4.842;2022-08-19T00:30:08;19.83;;;17.95;;
9884;SDS011;4981;50.966;4.842;2022-08-19T00:32:36;20.40;;;18.17;;
9884;SDS011;4981;50.966;4.842;2022-08-19T00:35:05;21.95;;;19.00;;
9884;SDS011;4981;50.966;4.842;2022-08-19T00:37:35;21.38;;;18.85;;
9884;SDS011;4981;50.966;4.842;2022-08-19T00:40:04;23.17;;;19.60;;
9884;SDS011;4981;50.966;4.842;2022-08-19T00:42:33;22.58;;;20.05;;
9884;SDS011;4981;50.966;4.842;2022-08-19T00:45:00;19.80;;;17.77;;
9884;SDS011;4981;50.966;4.842;2022-08-19T00:47:28;20.70;;;18.60;;
9884;SDS011;4981;50.966;4.842;2022-08-19T00:49:56;19.60;;;17.70;;
9884;SDS011;4981;50.966;4.842;2022-08-19T00:52:26;20.00;;;17.92;;
9884;SDS011;4981;50.966;4.842;2022-08-19T00:54:57;19.20;;;17.20;;
9884;SDS011;4981;50.966;4.842;2022-08-19T00:57:27;20.48;;;18.38;;
9884;SDS011;4981;50.966;4.842;2022-08-19T00:59:58;19.70;;;17.70;;
9884;SDS011;4981;50.966;4.842;2022-08-19T01:02:27;21.00;;;18.85;;
9884;SDS011;4981;50.966;4.842;2022-08-19T01:04:54;21.30;;;19.00;;
9884;SDS011;4981;50.966;4.842;2022-08-19T01:07:22;21.77;;;19.37;;
9884;SDS011;4981;50.966;4.842;2022-08-19T01:09:50;23.85;;;21.17;;
9884;SDS011;4981;50.966;4.842;2022-08-19T01:12:19;26.45;;;21.48;;
9884;SDS011;4981;50.966;4.842;2022-08-19T01:14:46;23.73;;;21.25;;
9884;SDS011;4981;50.966;4.842;2022-08-19T01:17:14;23.75;;;21.25;;
9884;SDS011;4981;50.966;4.842;2022-08-19T01:19:43;25.67;;;22.87;;
9884;SDS011;4981;50.966;4.842;2022-08-19T01:22:16;26.40;;;23.73;;
9884;SDS011;4981;50.966;4.842;2022-08-19T01:24:49;29.40;;;25.27;;
9884;SDS011;4981;50.966;4.842;2022-08-19T01:27:17;29.03;;;23.60;;
9884;SDS011;4981;50.966;4.842;2022-08-19T01:29:45;31.53;;;26.37;;
9884;SDS011;4981;50.966;4.842;2022-08-19T01:32:13;31.90;;;28.60;;
9884;SDS011;4981;50.966;4.842;2022-08-19T01:34:44;34.97;;;29.33;;
9884;SDS011;4981;50.966;4.842;2022-08-19T01:37:12;37.90;;;31.40;;
9884;SDS011;4981;50.966;4.842;2022-08-19T01:39:41;42.40;;;32.67;;
9884;SDS011;4981;50.966;4.842;2022-08-19T01:42:10;40.37;;;32.80;;
9884;SDS011;4981;50.966;4.842;2022-08-19T01:44:38;37.37;;;32.03;;
9884;SDS011;4981;50.966;4.842;2022-08-19T01:47:06;41.00;;;33.83;;
9884;SDS011;4981;50.966;4.842;2022-08-19T01:49:34;43.83;;;34.93;;
9884;SDS011;4981;50.966;4.842;2022-08-19T01:52:02;44.47;;;35.70;;
9884;SDS011;4981;50.966;4.842;2022-08-19T01:54:31;45.77;;;33.13;;
9884;SDS011;4981;50.966;4.842;2022-08-19T01:57:00;41.87;;;33.93;;
9884;SDS011;4981;50.966;4.842;2022-08-19T01:59:32;39.47;;;32.63;;
9884;SDS011;4981;50.966;4.842;2022-08-19T02:02:01;41.37;;;34.27;;
9884;SDS011;4981;50.966;4.842;2022-08-19T02:04:30;47.90;;;36.10;;
9884;SDS011;4981;50.966;4.842;2022-08-19T02:06:58;44.23;;;34.70;;
9884;SDS011;4981;50.966;4.842;2022-08-19T02:09:25;53.47;;;39.83;;
9884;SDS011;4981;50.966;4.842;2022-08-19T02:11:52;49.20;;;39.00;;
9884;SDS011;4981;50.966;4.842;2022-08-19T02:14:19;50.90;;;37.27;;
9884;SDS011;4981;50.966;4.842;2022-08-19T02:16:48;46.87;;;37.97;;
9884;SDS011;4981;50.966;4.842;2022-08-19T02:19:15;51.97;;;36.77;;
9884;SDS011;4981;50.966;4.842;2022-08-19T02:21:43;43.43;;;36.43;;
9884;SDS011;4981;50.966;4.842;2022-08-19T02:24:10;44.70;;;36.67;;
9884;SDS011;4981;50.966;4.842;2022-08-19T02:26:38;45.43;;;37.53;;
9884;SDS011;4981;50.966;4.842;2022-08-19T02:29:05;45.97;;;36.63;;
9884;SDS011;4981;50.966;4.842;2022-08-19T02:31:33;48.87;;;38.70;;
9884;SDS011;4981;50.966;4.842;2022-08-19T02:34:02;49.53;;;39.30;;
9884;SDS011;4981;50.966;4.842;2022-08-19T02:36:29;50.57;;;37.73;;
9884;SDS011;4981;50.966;4.842;2022-08-19T02:38:57;49.13;;;36.27;;
9884;SDS011;4981;50.966;4.842;2022-08-19T02:41:24;48.83;;;37.93;;
9884;SDS011;4981;50.966;4.842;2022-08-19T02:43:53;47.83;;;37.17;;
9884;SDS011;4981;50.966;4.842;2022-08-19T02:46:21;50.03;;;37.87;;
9884;SDS011;4981;50.966;4.842;2022-08-19T02:48:50;49.80;;;38.58;;
9884;SDS011;4981;50.966;4.842;2022-08-19T02:51:22;50.70;;;37.93;;
9884;SDS011;4981;50.966;4.842;2022-08-19T02:53:51;51.50;;;38.47;;
9884;SDS011;4981;50.966;4.842;2022-08-19T02:56:19;50.90;;;39.17;;
9884;SDS011;4981;50.966;4.842;2022-08-19T02:58:49;50.63;;;37.57;;
9884;SDS011;4981;50.966;4.842;2022-08-19T03:01:21;50.50;;;37.33;;
9884;SDS011;4981;50.966;4.842;2022-08-19T03:03:49;47.77;;;37.17;;
9884;SDS011;4981;50.966;4.842;2022-08-19T03:06:16;47.67;;;37.27;;
9884;SDS011;4981;50.966;4.842;2022-08-19T03:08:46;45.40;;;36.60;;
9884;SDS011;4981;50.966;4.842;2022-08-19T03:11:14;44.73;;;35.77;;
9884;SDS011;4981;50.966;4.842;2022-08-19T03:13:43;47.23;;;36.90;;
9884;SDS011;4981;50.966;4.842;2022-08-19T03:16:10;43.50;;;35.30;;
9884;SDS011;4981;50.966;4.842;2022-08-19T03:18:38;47.37;;;35.83;;
9884;SDS011;4981;50.966;4.842;2022-08-19T03:21:06;47.73;;;36.50;;
9884;SDS011;4981;50.966;4.842;2022-08-19T03:23:33;47.73;;;36.10;;
9884;SDS011;4981;50.966;4.842;2022-08-19T03:26:04;45.43;;;34.93;;
9884;SDS011;4981;50.966;4.842;2022-08-19T03:28:32;48.90;;;37.90;;
9884;SDS011;4981;50.966;4.842;2022-08-19T03:31:00;47.13;;;36.23;;
9884;SDS011;4981;50.966;4.842;2022-08-19T03:33:30;49.43;;;36.17;;
9884;SDS011;4981;50.966;4.842;2022-08-19T03:36:02;45.77;;;34.90;;
9884;SDS011;4981;50.966;4.842;2022-08-19T03:38:32;51.67;;;37.20;;
9884;SDS011;4981;50.966;4.842;2022-08-19T03:41:02;47.40;;;36.20;;
9884;SDS011;4981;50.966;4.842;2022-08-19T03:43:33;50.63;;;36.57;;
9884;SDS011;4981;50.966;4.842;2022-08-19T03:46:02;51.57;;;36.80;;
9884;SDS011;4981;50.966;4.842;2022-08-19T03:48:32;47.20;;;35.77;;
9884;SDS011;4981;50.966;4.842;2022-08-19T03:50:59;47.60;;;35.90;;
9884;SDS011;4981;50.966;4.842;2022-08-19T03:53:28;49.17;;;37.37;;
9884;SDS011;4981;50.966;4.842;2022-08-19T03:55:56;48.53;;;36.60;;
9884;SDS011;4981;50.966;4.842;2022-08-19T03:58:26;50.10;;;36.90;;
9884;SDS011;4981;50.966;4.842;2022-08-19T04:00:54;46.20;;;35.00;;
9884;SDS011;4981;50.966;4.842;2022-08-19T04:03:23;48.83;;;37.63;;
9884;SDS011;4981;50.966;4.842;2022-08-19T04:05:51;51.57;;;37.57;;
9884;SDS011;4981;50.966;4.842;2022-08-19T04:08:20;45.20;;;36.23;;
9884;SDS011;4981;50.966;4.842;2022-08-19T04:10:47;50.37;;;35.73;;
9884;SDS011;4981;50.966;4.842;2022-08-19T04:13:16;48.27;;;35.43;;
9884;SDS011;4981;50.966;4.842;2022-08-19T04:15:45;42.93;;;34.13;;
9884;SDS011;4981;50.966;4.842;2022-08-19T04:18:13;43.60;;;33.97;;
9884;SDS011;4981;50.966;4.842;2022-08-19T04:20:41;41.33;;;32.80;;
9884;SDS011;4981;50.966;4.842;2022-08-19T04:23:10;38.87;;;31.27;;
9884;SDS011;4981;50.966;4.842;2022-08-19T04:25:38;38.57;;;30.70;;
9884;SDS011;4981;50.966;4.842;2022-08-19T04:28:07;40.20;;;31.40;;
9884;SDS011;4981;50.966;4.842;2022-08-19T04:30:37;40.97;;;31.67;;
9884;SDS011;4981;50.966;4.842;2022-08-19T04:33:07;39.27;;;29.83;;
9884;SDS011;4981;50.966;4.842;2022-08-19T04:35:35;37.10;;;29.40;;
9884;SDS011;4981;50.966;4.842;2022-08-19T04:38:04;38.90;;;28.20;;
9884;SDS011;4981;50.966;4.842;2022-08-19T04:40:32;32.97;;;28.13;;
9884;SDS011;4981;50.966;4.842;2022-08-19T04:43:16;35.83;;;28.57;;
9884;SDS011;4981;50.966;4.842;2022-08-19T04:45:44;37.93;;;28.90;;
9884;SDS011;4981;50.966;4.842;2022-08-19T04:48:13;38.37;;;29.47;;
9884;SDS011;4981;50.966;4.842;2022-08-19T04:50:41;36.40;;;29.17;;
9884;SDS011;4981;50.966;4.842;2022-08-19T04:53:09;38.57;;;28.23;;
9884;SDS011;4981;50.966;4.842;2022-08-19T04:55:40;36.23;;;29.47;;
9884;SDS011;4981;50.966;4.842;2022-08-19T04:58:08;34.77;;;29.33;;
9884;SDS011;4981;50.966;4.842;2022-08-19T05:00:37;41.27;;;30.47;;
9884;SDS011;4981;50.966;4.842;2022-08-19T05:03:06;38.77;;;30.67;;
9884;SDS011;4981;50.966;4.842;2022-08-19T05:05:37;34.70;;;27.57;;
9884;SDS011;4981;50.966;4.842;2022-08-19T05:08:06;36.63;;;28.20;;
9884;SDS011;4981;50.966;4.842;2022-08-19T05:10:34;36.43;;;27.93;;
9884;SDS011;4981;50.966;4.842;2022-08-19T05:13:02;37.53;;;26.60;;
9884;SDS011;4981;50.966;4.842;2022-08-19T05:15:29;39.87;;;28.03;;
9884;SDS011;4981;50.966;4.842;2022-08-19T05:17:57;32.43;;;26.73;;
9884;SDS011;4981;50.966;4.842;2022-08-19T05:20:43;35.30;;;27.07;;
9884;SDS011;4981;50.966;4.842;2022-08-19T05:23:27;34.57;;;27.60;;
9884;SDS011;4981;50.966;4.842;2022-08-19T05:25:55;35.23;;;26.30;;
9884;SDS011;4981;50.966;4.842;2022-08-19T05:28:22;31.97;;;25.50;;
9884;SDS011;4981;50.966;4.842;2022-08-19T05:30:49;31.00;;;23.70;;
9884;SDS011;4981;50.966;4.842;2022-08-19T05:33:17;34.03;;;23.77;;
9884;SDS011;4981;50.966;4.842;2022-08-19T05:35:46;28.17;;;21.90;;
9884;SDS011;4981;50.966;4.842;2022-08-19T05:38:14;27.10;;;21.73;;
9884;SDS011;4981;50.966;4.842;2022-08-19T05:40:42;28.57;;;22.50;;
9884;SDS011;4981;50.966;4.842;2022-08-19T05:43:14;28.40;;;22.03;;
9884;SDS011;4981;50.966;4.842;2022-08-19T05:45:42;25.17;;;19.93;;
9884;SDS011;4981;50.966;4.842;2022-08-19T05:48:10;28.77;;;22.47;;
9884;SDS011;4981;50.966;4.842;2022-08-19T05:50:38;29.70;;;23.03;;
9884;SDS011;4981;50.966;4.842;2022-08-19T05:53:08;27.47;;;22.10;;
9884;SDS011;4981;50.966;4.842;2022-08-19T05:55:37;31.43;;;23.07;;
9884;SDS011;4981;50.966;4.842;2022-08-19T05:58:04;28.53;;;23.33;;
9884;SDS011;4981;50.966;4.842;2022-08-19T06:00:32;30.10;;;24.47;;
9884;SDS011;4981;50.966;4.842;2022-08-19T06:03:00;29.33;;;24.60;;
9884;SDS011;4981;50.966;4.842;2022-08-19T06:05:28;36.43;;;26.60;;
9884;SDS011;4981;50.966;4.842;2022-08-19T06:07:56;30.97;;;27.57;;
9884;SDS011;4981;50.966;4.842;2022-08-19T06:10:25;34.77;;;25.77;;
9884;SDS011;4981;50.966;4.842;2022-08-19T06:12:52;34.97;;;24.80;;
9884;SDS011;4981;50.966;4.842;2022-08-19T06:15:21;29.73;;;24.10;;
9884;SDS011;4981;50.966;4.842;2022-08-19T06:17:50;27.83;;;22.53;;
9884;SDS011;4981;50.966;4.842;2022-08-19T06:20:17;27.27;;;21.63;;
9884;SDS011;4981;50.966;4.842;2022-08-19T06:22:46;29.40;;;22.03;;
9884;SDS011;4981;50.966;4.842;2022-08-19T06:25:15;27.53;;;19.70;;
9884;SDS011;4981;50.966;4.842;2022-08-19T06:27:44;27.27;;;20.23;;
9884;SDS011;4981;50.966;4.842;2022-08-19T06:30:12;25.30;;;19.13;;
9884;SDS011;4981;50.966;4.842;2022-08-19T06:32:40;23.53;;;18.17;;
9884;SDS011;4981;50.966;4.842;2022-08-19T06:35:07;20.60;;;16.60;;
9884;SDS011;4981;50.966;4.842;2022-08-19T06:37:36;22.47;;;16.83;;
9884;SDS011;4981;50.966;4.842;2022-08-19T06:40:04;19.60;;;16.03;;
9884;SDS011;4981;50.966;4.842;2022-08-19T06:42:33;22.83;;;16.90;;
9884;SDS011;4981;50.966;4.842;2022-08-19T06:45:02;21.47;;;16.43;;
9884;SDS011;4981;50.966;4.842;2022-08-19T06:47:29;23.37;;;16.87;;
9884;SDS011;4981;50.966;4.842;2022-08-19T06:49:58;24.57;;;15.60;;
9884;SDS011;4981;50.966;4.842;2022-08-19T06:52:27;23.37;;;14.90;;
9884;SDS011;4981;50.966;4.842;2022-08-19T06:54:54;22.23;;;14.70;;
9884;SDS011;4981;50.966;4.842;2022-08-19T06:57:22;21.63;;;14.73;;
9884;SDS011;4981;50.966;4.842;2022-08-19T06:59:50;21.27;;;14.23;;
9884;SDS011;4981;50.966;4.842;2022-08-19T07:04:47;18.17;;;13.33;;
9884;SDS011;4981;50.966;4.842;2022-08-19T07:07:16;18.00;;;13.70;;
9884;SDS011;4981;50.966;4.842;2022-08-19T07:09:43;17.37;;;12.27;;
9884;SDS011;4981;50.966;4.842;2022-08-19T07:12:12;19.87;;;13.17;;
9884;SDS011;4981;50.966;4.842;2022-08-19T07:14:42;17.93;;;12.63;;
9884;SDS011;4981;50.966;4.842;2022-08-19T07:17:11;19.37;;;12.27;;
9884;SDS011;4981;50.966;4.842;2022-08-19T07:19:39;19.23;;;13.00;;
9884;SDS011;4981;50.966;4.842;2022-08-19T07:22:09;18.90;;;12.73;;
9884;SDS011;4981;50.966;4.842;2022-08-19T07:24:37;17.47;;;13.13;;
9884;SDS011;4981;50.966;4.842;2022-08-19T07:27:05;19.50;;;12.43;;
9884;SDS011;4981;50.966;4.842;2022-08-19T07:29:34;17.83;;;12.33;;
9884;SDS011;4981;50.966;4.842;2022-08-19T07:32:05;20.80;;;12.50;;
9884;SDS011;4981;50.966;4.842;2022-08-19T07:34:34;19.00;;;12.57;;
9884;SDS011;4981;50.966;4.842;2022-08-19T07:37:03;16.60;;;12.53;;
9884;SDS011;4981;50.966;4.842;2022-08-19T07:39:33;20.92;;;14.10;;
9884;SDS011;4981;50.966;4.842;2022-08-19T07:42:03;18.20;;;11.37;;
9884;SDS011;4981;50.966;4.842;2022-08-19T07:44:32;19.23;;;12.13;;
9884;SDS011;4981;50.966;4.842;2022-08-19T07:47:00;19.50;;;12.60;;
9884;SDS011;4981;50.966;4.842;2022-08-19T07:49:28;17.47;;;11.77;;
9884;SDS011;4981;50.966;4.842;2022-08-19T07:51:57;15.43;;;10.73;;
9884;SDS011;4981;50.966;4.842;2022-08-19T07:54:26;15.03;;;10.67;;
9884;SDS011;4981;50.966;4.842;2022-08-19T07:56:57;16.20;;;9.97;;
9884;SDS011;4981;50.966;4.842;2022-08-19T07:59:24;17.23;;;9.90;;
9884;SDS011;4981;50.966;4.842;2022-08-19T08:01:53;16.30;;;9.93;;
9884;SDS011;4981;50.966;4.842;2022-08-19T08:04:21;13.03;;;9.23;;
9884;SDS011;4981;50.966;4.842;2022-08-19T08:07:06;20.00;;;9.27;;
9884;SDS011;4981;50.966;4.842;2022-08-19T08:09:52;11.07;;;7.90;;
9884;SDS011;4981;50.966;4.842;2022-08-19T08:12:21;16.63;;;9.13;;
9884;SDS011;4981;50.966;4.842;2022-08-19T08:14:54;17.70;;;10.43;;
9884;SDS011;4981;50.966;4.842;2022-08-19T08:17:23;13.30;;;8.60;;
9884;SDS011;4981;50.966;4.842;2022-08-19T08:19:52;11.57;;;7.57;;
9884;SDS011;4981;50.966;4.842;2022-08-19T08:22:20;14.03;;;7.60;;
9884;SDS011;4981;50.966;4.842;2022-08-19T08:25:03;10.73;;;8.00;;
9884;SDS011;4981;50.966;4.842;2022-08-19T08:27:33;11.73;;;7.90;;
9884;SDS011;4981;50.966;4.842;2022-08-19T08:30:04;12.10;;;7.33;;
9884;SDS011;4981;50.966;4.842;2022-08-19T08:32:34;13.25;;;7.03;;
9884;SDS011;4981;50.966;4.842;2022-08-19T08:35:02;14.80;;;7.17;;
9884;SDS011;4981;50.966;4.842;2022-08-19T08:37:29;12.65;;;6.57;;
9884;SDS011;4981;50.966;4.842;2022-08-19T08:39:56;9.83;;;5.37;;
9884;SDS011;4981;50.966;4.842;2022-08-19T08:42:24;15.03;;;4.93;;
9884;SDS011;4981;50.966;4.842;2022-08-19T08:44:59;9.93;;;5.13;;
9884;SDS011;4981;50.966;4.842;2022-08-19T08:47:32;7.20;;;5.28;;
9884;SDS011;4981;50.966;4.842;2022-08-19T08:50:03;7.60;;;4.82;;
9884;SDS011;4981;50.966;4.842;2022-08-19T08:52:35;9.05;;;4.70;;
9884;SDS011;4981;50.966;4.842;2022-08-19T08:55:08;12.10;;;4.80;;
9884;SDS011;4981;50.966;4.842;2022-08-19T08:57:39;4.63;;;4.00;;
9884;SDS011;4981;50.966;4.842;2022-08-19T09:00:19;6.43;;;4.25;;
9884;SDS011;4981;50.966;4.842;2022-08-19T09:02:50;5.28;;;4.03;;
9884;SDS011;4981;50.966;4.842;2022-08-19T09:05:17;6.78;;;4.13;;
9884;SDS011;4981;50.966;4.842;2022-08-19T09:08:00;5.50;;;4.20;;
9884;SDS011;4981;50.966;4.842;2022-08-19T09:10:36;6.80;;;4.88;;
9884;SDS011;4981;50.966;4.842;2022-08-19T09:13:07;7.15;;;4.30;;
9884;SDS011;4981;50.966;4.842;2022-08-19T09:15:46;6.88;;;3.88;;
9884;SDS011;4981;50.966;4.842;2022-08-19T09:18:17;7.82;;;4.90;;
9884;SDS011;4981;50.966;4.842;2022-08-19T09:20:45;8.90;;;4.90;;
9884;SDS011;4981;50.966;4.842;2022-08-19T09:23:13;8.23;;;4.78;;
9884;SDS011;4981;50.966;4.842;2022-08-19T09:25:40;7.60;;;4.93;;
9884;SDS011;4981;50.966;4.842;2022-08-19T09:28:08;9.13;;;4.38;;
9884;SDS011;4981;50.966;4.842;2022-08-19T09:30:38;7.32;;;4.20;;
9884;SDS011;4981;50.966;4.842;2022-08-19T09:33:08;8.75;;;4.18;;
9884;SDS011;4981;50.966;4.842;2022-08-19T09:35:35;6.80;;;4.35;;
9884;SDS011;4981;50.966;4.842;2022-08-19T09:38:02;6.38;;;4.00;;
9884;SDS011;4981;50.966;4.842;2022-08-19T09:40:30;7.03;;;4.50;;
9884;SDS011;4981;50.966;4.842;2022-08-19T09:42:57;8.65;;;4.13;;
9884;SDS011;4981;50.966;4.842;2022-08-19T09:45:27;7.22;;;3.80;;
9884;SDS011;4981;50.966;4.842;2022-08-19T09:47:55;6.78;;;3.83;;
9884;SDS011;4981;50.966;4.842;2022-08-19T09:50:24;6.63;;;4.28;;
9884;SDS011;4981;50.966;4.842;2022-08-19T09:52:52;5.15;;;3.60;;
9884;SDS011;4981;50.966;4.842;2022-08-19T09:55:20;7.20;;;4.30;;
9884;SDS011;4981;50.966;4.842;2022-08-19T09:57:47;5.28;;;3.83;;
9884;SDS011;4981;50.966;4.842;2022-08-19T10:00:14;5.22;;;3.70;;
9884;SDS011;4981;50.966;4.842;2022-08-19T10:02:41;5.15;;;3.90;;
9884;SDS011;4981;50.966;4.842;2022-08-19T10:05:09;4.85;;;3.83;;
9884;SDS011;4981;50.966;4.842;2022-08-19T10:07:54;8.13;;;4.25;;
9884;SDS011;4981;50.966;4.842;2022-08-19T10:10:21;6.25;;;3.78;;
9884;SDS011;4981;50.966;4.842;2022-08-19T10:12:49;7.47;;;4.13;;
9884;SDS011;4981;50.966;4.842;2022-08-19T10:15:16;6.60;;;3.85;;
9884;SDS011;4981;50.966;4.842;2022-08-19T10:17:46;8.35;;;3.90;;
9884;SDS011;4981;50.966;4.842;2022-08-19T10:20:13;6.95;;;4.05;;
9884;SDS011;4981;50.966;4.842;2022-08-19T10:22:40;6.40;;;4.10;;
9884;SDS011;4981;50.966;4.842;2022-08-19T10:25:10;10.73;;;4.18;;
9884;SDS011;4981;50.966;4.842;2022-08-19T10:27:40;5.80;;;4.05;;
9884;SDS011;4981;50.966;4.842;2022-08-19T10:30:07;7.05;;;3.78;;
9884;SDS011;4981;50.966;4.842;2022-08-19T10:32:36;6.85;;;4.15;;
9884;SDS011;4981;50.966;4.842;2022-08-19T10:35:03;8.02;;;5.18;;
9884;SDS011;4981;50.966;4.842;2022-08-19T10:37:33;7.22;;;4.75;;
9884;SDS011;4981;50.966;4.842;2022-08-19T10:40:02;6.55;;;4.30;;
9884;SDS011;4981;50.966;4.842;2022-08-19T10:42:32;10.02;;;4.75;;
9884;SDS011;4981;50.966;4.842;2022-08-19T10:44:59;7.13;;;4.93;;
9884;SDS011;4981;50.966;4.842;2022-08-19T10:47:27;5.25;;;4.28;;
9884;SDS011;4981;50.966;4.842;2022-08-19T10:49:54;7.70;;;4.50;;
9884;SDS011;4981;50.966;4.842;2022-08-19T10:52:40;8.48;;;4.55;;
9884;SDS011;4981;50.966;4.842;2022-08-19T10:55:08;9.48;;;4.80;;
9884;SDS011;4981;50.966;4.842;2022-08-19T10:57:53;10.00;;;4.80;;
9884;SDS011;4981;50.966;4.842;2022-08-19T11:00:22;9.40;;;4.43;;
9884;SDS011;4981;50.966;4.842;2022-08-19T11:02:50;10.38;;;4.38;;
9884;SDS011;4981;50.966;4.842;2022-08-19T11:05:18;7.72;;;4.35;;
9884;SDS011;4981;50.966;4.842;2022-08-19T11:07:47;7.72;;;4.70;;
9884;SDS011;4981;50.966;4.842;2022-08-19T11:10:16;9.80;;;4.30;;
9884;SDS011;4981;50.966;4.842;2022-08-19T11:12:44;7.43;;;4.93;;
9884;SDS011;4981;50.966;4.842;2022-08-19T11:15:14;6.95;;;4.55;;
9884;SDS011;4981;50.966;4.842;2022-08-19T11:17:42;4.65;;;4.13;;
9884;SDS011;4981;50.966;4.842;2022-08-19T11:20:10;6.85;;;4.25;;
9884;SDS011;4981;50.966;4.842;2022-08-19T11:22:38;6.32;;;4.78;;
9884;SDS011;4981;50.966;4.842;2022-08-19T11:25:07;5.32;;;4.05;;
9884;SDS011;4981;50.966;4.842;2022-08-19T11:27:37;5.78;;;4.35;;
9884;SDS011;4981;50.966;4.842;2022-08-19T11:30:08;7.72;;;4.63;;
9884;SDS011;4981;50.966;4.842;2022-08-19T11:32:38;5.95;;;4.10;;
9884;SDS011;4981;50.966;4.842;2022-08-19T11:35:05;7.50;;;3.60;;
9884;SDS011;4981;50.966;4.842;2022-08-19T11:37:33;6.95;;;4.13;;
9884;SDS011;4981;50.966;4.842;2022-08-19T11:40:02;5.15;;;4.22;;
9884;SDS011;4981;50.966;4.842;2022-08-19T11:42:31;9.98;;;4.13;;
9884;SDS011;4981;50.966;4.842;2022-08-19T11:45:16;5.93;;;4.90;;
9884;SDS011;4981;50.966;4.842;2022-08-19T11:47:45;7.93;;;4.43;;
9884;SDS011;4981;50.966;4.842;2022-08-19T11:50:12;5.68;;;4.43;;
9884;SDS011;4981;50.966;4.842;2022-08-19T11:52:40;8.25;;;3.88;;
9884;SDS011;4981;50.966;4.842;2022-08-19T11:55:10;6.80;;;3.85;;
9884;SDS011;4981;50.966;4.842;2022-08-19T11:57:38;11.60;;;3.85;;
9884;SDS011;4981;50.966;4.842;2022-08-19T12:00:06;5.78;;;3.53;;
9884;SDS011;4981;50.966;4.842;2022-08-19T12:02:36;4.63;;;2.90;;
9884;SDS011;4981;50.966;4.842;2022-08-19T12:05:05;3.75;;;2.80;;
9884;SDS011;4981;50.966;4.842;2022-08-19T12:07:33;4.10;;;2.95;;
9884;SDS011;4981;50.966;4.842;2022-08-19T12:10:01;7.93;;;2.80;;
9884;SDS011;4981;50.966;4.842;2022-08-19T12:12:29;5.72;;;2.97;;
9884;SDS011;4981;50.966;4.842;2022-08-19T12:14:56;7.45;;;2.65;;
9884;SDS011;4981;50.966;4.842;2022-08-19T12:17:24;5.82;;;2.85;;
9884;SDS011;4981;50.966;4.842;2022-08-19T12:19:52;3.70;;;2.40;;
9884;SDS011;4981;50.966;4.842;2022-08-19T12:22:21;3.53;;;2.53;;
9884;SDS011;4981;50.966;4.842;2022-08-19T12:24:48;4.53;;;3.38;;
9884;SDS011;4981;50.966;4.842;2022-08-19T12:27:18;7.13;;;3.25;;
9884;SDS011;4981;50.966;4.842;2022-08-19T12:29:49;5.55;;;3.28;;
9884;SDS011;4981;50.966;4.842;2022-08-19T12:32:17;5.60;;;3.60;;
9884;SDS011;4981;50.966;4.842;2022-08-19T12:34:44;7.13;;;4.63;;
9884;SDS011;4981;50.966;4.842;2022-08-19T12:37:12;5.90;;;3.72;;
9884;SDS011;4981;50.966;4.842;2022-08-19T12:39:41;5.13;;;3.88;;
9884;SDS011;4981;50.966;4.842;2022-08-19T12:42:09;6.38;;;4.47;;
9884;SDS011;4981;50.966;4.842;2022-08-19T12:44:37;4.10;;;3.70;;
9884;SDS011;4981;50.966;4.842;2022-08-19T12:47:06;4.03;;;2.88;;
9884;SDS011;4981;50.966;4.842;2022-08-19T12:49:34;4.32;;;3.45;;
9884;SDS011;4981;50.966;4.842;2022-08-19T12:52:04;4.47;;;3.42;;
9884;SDS011;4981;50.966;4.842;2022-08-19T12:54:32;4.10;;;3.45;;
9884;SDS011;4981;50.966;4.842;2022-08-19T12:57:04;5.50;;;3.40;;
9884;SDS011;4981;50.966;4.842;2022-08-19T12:59:32;5.10;;;3.45;;
9884;SDS011;4981;50.966;4.842;2022-08-19T13:02:01;4.25;;;3.50;;
9884;SDS011;4981;50.966;4.842;2022-08-19T13:04:30;4.60;;;4.03;;
9884;SDS011;4981;50.966;4.842;2022-08-19T13:06:58;5.05;;;4.10;;
9884;SDS011;4981;50.966;4.842;2022-08-19T13:09:25;4.90;;;3.85;;
9884;SDS011;4981;50.966;4.842;2022-08-19T13:11:52;7.60;;;4.30;;
9884;SDS011;4981;50.966;4.842;2022-08-19T13:14:21;4.40;;;4.00;;
9884;SDS011;4981;50.966;4.842;2022-08-19T13:16:48;4.82;;;4.20;;
9884;SDS011;4981;50.966;4.842;2022-08-19T13:19:15;8.75;;;5.15;;
9884;SDS011;4981;50.966;4.842;2022-08-19T13:21:45;5.30;;;4.80;;
9884;SDS011;4981;50.966;4.842;2022-08-19T13:24:16;6.25;;;4.82;;
9884;SDS011;4981;50.966;4.842;2022-08-19T13:26:43;4.88;;;4.32;;
9884;SDS011;4981;50.966;4.842;2022-08-19T13:29:10;6.50;;;4.28;;
9884;SDS011;4981;50.966;4.842;2022-08-19T13:31:56;5.90;;;4.25;;
9884;SDS011;4981;50.966;4.842;2022-08-19T13:34:41;6.00;;;4.05;;
9884;SDS011;4981;50.966;4.842;2022-08-19T13:37:11;6.32;;;5.13;;
9884;SDS011;4981;50.966;4.842;2022-08-19T13:39:39;6.13;;;4.50;;
9884;SDS011;4981;50.966;4.842;2022-08-19T13:42:07;5.03;;;4.40;;
9884;SDS011;4981;50.966;4.842;2022-08-19T13:44:34;5.13;;;4.32;;
9884;SDS011;4981;50.966;4.842;2022-08-19T13:47:04;5.55;;;3.92;;
9884;SDS011;4981;50.966;4.842;2022-08-19T13:49:33;4.30;;;3.88;;
9884;SDS011;4981;50.966;4.842;2022-08-19T13:52:02;5.38;;;4.30;;
9884;SDS011;4981;50.966;4.842;2022-08-19T13:54:30;6.80;;;4.60;;
9884;SDS011;4981;50.966;4.842;2022-08-19T13:56:57;5.78;;;5.10;;
9884;SDS011;4981;50.966;4.842;2022-08-19T13:59:24;5.35;;;4.40;;
9884;SDS011;4981;50.966;4.842;2022-08-19T14:01:52;8.95;;;4.50;;
9884;SDS011;4981;50.966;4.842;2022-08-19T14:04:21;4.70;;;3.90;;
9884;SDS011;4981;50.966;4.842;2022-08-19T14:06:48;4.57;;;4.10;;
9884;SDS011;4981;50.966;4.842;2022-08-19T14:09:15;4.90;;;3.60;;
9884;SDS011;4981;50.966;4.842;2022-08-19T14:11:42;3.72;;;3.28;;
9884;SDS011;4981;50.966;4.842;2022-08-19T14:14:11;4.18;;;3.78;;
9884;SDS011;4981;50.966;4.842;2022-08-19T14:16:38;4.13;;;3.67;;
9884;SDS011;4981;50.966;4.842;2022-08-19T14:19:06;3.70;;;3.17;;
9884;SDS011;4981;50.966;4.842;2022-08-19T14:21:35;5.43;;;2.75;;
9884;SDS011;4981;50.966;4.842;2022-08-19T14:24:02;5.00;;;2.17;;
9884;SDS011;4981;50.966;4.842;2022-08-19T14:26:30;5.10;;;2.42;;
9884;SDS011;4981;50.966;4.842;2022-08-19T14:28:57;4.00;;;2.30;;
9884;SDS011;4981;50.966;4.842;2022-08-19T14:31:24;4.13;;;2.58;;
9884;SDS011;4981;50.966;4.842;2022-08-19T14:33:51;7.07;;;3.00;;
9884;SDS011;4981;50.966;4.842;2022-08-19T14:36:19;3.15;;;2.85;;
9884;SDS011;4981;50.966;4.842;2022-08-19T14:38:48;5.57;;;3.30;;
9884;SDS011;4981;50.966;4.842;2022-08-19T14:41:16;4.88;;;2.55;;
9884;SDS011;4981;50.966;4.842;2022-08-19T14:43:44;5.75;;;3.03;;
9884;SDS011;4981;50.966;4.842;2022-08-19T14:46:13;3.92;;;2.70;;
9884;SDS011;4981;50.966;4.842;2022-08-19T14:48:42;3.70;;;2.28;;
9884;SDS011;4981;50.966;4.842;2022-08-19T14:51:09;2.22;;;1.92;;
9884;SDS011;4981;50.966;4.842;2022-08-19T14:53:37;3.35;;;1.92;;
9884;SDS011;4981;50.966;4.842;2022-08-19T14:56:10;4.15;;;1.73;;
9884;SDS011;4981;50.966;4.842;2022-08-19T14:58:39;3.53;;;1.67;;
9884;SDS011;4981;50.966;4.842;2022-08-19T15:01:07;2.40;;;1.42;;
9884;SDS011;4981;50.966;4.842;2022-08-19T15:03:35;5.13;;;1.30;;
9884;SDS011;4981;50.966;4.842;2022-08-19T15:06:04;1.88;;;1.67;;
9884;SDS011;4981;50.966;4.842;2022-08-19T15:08:33;1.65;;;0.93;;
9884;SDS011;4981;50.966;4.842;2022-08-19T15:11:02;3.97;;;1.15;;
9884;SDS011;4981;50.966;4.842;2022-08-19T15:13:35;2.88;;;1.10;;